[ SPECI EDKA 180630Z AUTO 25006KT 1800 -SHRA BR ///////// 13/13 Q1010 ]
Windrichtung (graph.)
Inst: 245° 8.4 kt
2min: 246° 6.8 kt
10min: 241° 6.1 kt
Extrem: 222° – 255° 8.7 kt – 4.3 kt
Crosswind: 0.5 kt
Luftdruck (graph.)
QNH: 1011 hPa Temp: 12.8 °C
QNH: 29.85 inHg DewP: 12.8 °C
QFE: 988 hPa Hum: 100.0 %
QFE: 29.19 inHg